sensor_id;sensor_type;location;lat;lon;timestamp;pressure;altitude;pressure_sealevel;temperature;humidity
84959;BME280;75256;48.062;11.662;2024-03-29T00:01:09;94052.22;;;2.74;83.89
84959;BME280;75256;48.062;11.662;2024-03-29T00:03:35;94060.06;;;2.68;82.54
84959;BME280;75256;48.062;11.662;2024-03-29T00:06:00;94060.41;;;2.70;82.90
84959;BME280;75256;48.062;11.662;2024-03-29T00:08:26;94057.63;;;2.74;82.57
84959;BME280;75256;48.062;11.662;2024-03-29T00:10:51;94057.81;;;2.67;82.53
84959;BME280;75256;48.062;11.662;2024-03-29T00:13:17;94057.88;;;2.63;83.39
84959;BME280;75256;48.062;11.662;2024-03-29T00:15:45;94050.41;;;2.54;83.04
84959;BME280;75256;48.062;11.662;2024-03-29T00:18:11;94059.69;;;2.53;83.77
84959;BME280;75256;48.062;11.662;2024-03-29T00:20:37;94050.16;;;2.49;83.75
84959;BME280;75256;48.062;11.662;2024-03-29T00:23:05;94038.22;;;2.50;84.08
84959;BME280;75256;48.062;11.662;2024-03-29T00:25:31;94033.38;;;2.45;84.34
84959;BME280;75256;48.062;11.662;2024-03-29T00:27:56;94031.81;;;2.44;83.57
84959;BME280;75256;48.062;11.662;2024-03-29T00:30:21;94019.03;;;2.48;84.47
84959;BME280;75256;48.062;11.662;2024-03-29T00:32:47;94014.50;;;2.45;82.96
84959;BME280;75256;48.062;11.662;2024-03-29T00:35:12;94010.72;;;2.42;83.89
84959;BME280;75256;48.062;11.662;2024-03-29T00:37:41;94011.66;;;2.36;83.68
84959;BME280;75256;48.062;11.662;2024-03-29T00:40:07;94005.28;;;2.30;83.88
84959;BME280;75256;48.062;11.662;2024-03-29T00:42:33;94001.06;;;2.29;84.21
84959;BME280;75256;48.062;11.662;2024-03-29T00:44:58;93992.25;;;2.28;84.37
84959;BME280;75256;48.062;11.662;2024-03-29T00:47:26;93998.88;;;2.24;84.68
84959;BME280;75256;48.062;11.662;2024-03-29T00:49:51;93993.25;;;2.34;85.35
84959;BME280;75256;48.062;11.662;2024-03-29T00:52:19;93992.47;;;2.34;84.37
84959;BME280;75256;48.062;11.662;2024-03-29T00:54:44;93992.25;;;2.28;83.63
84959;BME280;75256;48.062;11.662;2024-03-29T00:57:12;93980.47;;;2.22;83.78
84959;BME280;75256;48.062;11.662;2024-03-29T00:59:39;93992.00;;;2.23;84.50
84959;BME280;75256;48.062;11.662;2024-03-29T01:02:05;93984.88;;;2.16;84.06
84959;BME280;75256;48.062;11.662;2024-03-29T01:04:31;93979.06;;;2.18;83.42
84959;BME280;75256;48.062;11.662;2024-03-29T01:06:57;93984.28;;;2.25;84.34
84959;BME280;75256;48.062;11.662;2024-03-29T01:09:25;93976.28;;;2.21;84.22
84959;BME280;75256;48.062;11.662;2024-03-29T01:11:51;93973.50;;;2.25;83.98
84959;BME280;75256;48.062;11.662;2024-03-29T01:14:19;93971.13;;;2.27;83.77
84959;BME280;75256;48.062;11.662;2024-03-29T01:16:46;93969.16;;;2.15;82.65
84959;BME280;75256;48.062;11.662;2024-03-29T01:19:12;93961.06;;;2.15;83.45
84959;BME280;75256;48.062;11.662;2024-03-29T01:21:37;93957.53;;;2.18;83.04
84959;BME280;75256;48.062;11.662;2024-03-29T01:24:05;93941.38;;;2.18;82.73
84959;BME280;75256;48.062;11.662;2024-03-29T01:26:33;93934.25;;;2.11;83.16
84959;BME280;75256;48.062;11.662;2024-03-29T01:28:58;93937.78;;;2.08;83.81
84959;BME280;75256;48.062;11.662;2024-03-29T01:31:23;93933.25;;;2.05;83.94
84959;BME280;75256;48.062;11.662;2024-03-29T01:33:51;93921.63;;;2.08;83.48
84959;BME280;75256;48.062;11.662;2024-03-29T01:36:17;93904.97;;;2.13;83.04
84959;BME280;75256;48.062;11.662;2024-03-29T01:38:42;93890.44;;;2.11;83.69
84959;BME280;75256;48.062;11.662;2024-03-29T01:41:13;93881.84;;;2.16;82.44
84959;BME280;75256;48.062;11.662;2024-03-29T01:43:39;93873.00;;;2.15;82.90
84959;BME280;75256;48.062;11.662;2024-03-29T01:46:04;93874.53;;;2.16;83.33
84959;BME280;75256;48.062;11.662;2024-03-29T01:48:33;93878.38;;;2.15;83.37
84959;BME280;75256;48.062;11.662;2024-03-29T01:50:59;93873.84;;;2.12;83.43
84959;BME280;75256;48.062;11.662;2024-03-29T01:53:29;93882.44;;;2.07;84.51
84959;BME280;75256;48.062;11.662;2024-03-29T01:55:57;93882.22;;;2.02;84.46
84959;BME280;75256;48.062;11.662;2024-03-29T01:58:23;93877.94;;;2.04;84.47
84959;BME280;75256;48.062;11.662;2024-03-29T02:00:52;93873.50;;;1.98;85.13
84959;BME280;75256;48.062;11.662;2024-03-29T02:03:19;93890.16;;;1.93;84.82
84959;BME280;75256;48.062;11.662;2024-03-29T02:05:48;93886.97;;;1.82;85.34
84959;BME280;75256;48.062;11.662;2024-03-29T02:08:14;93885.19;;;1.91;85.18
84959;BME280;75256;48.062;11.662;2024-03-29T02:10:45;93887.22;;;1.87;84.80
84959;BME280;75256;48.062;11.662;2024-03-29T02:13:12;93879.06;;;1.91;85.40
84959;BME280;75256;48.062;11.662;2024-03-29T02:15:39;93883.03;;;1.86;84.75
84959;BME280;75256;48.062;11.662;2024-03-29T02:18:04;93887.47;;;1.93;84.40
84959;BME280;75256;48.062;11.662;2024-03-29T02:20:31;93891.81;;;1.87;85.37
84959;BME280;75256;48.062;11.662;2024-03-29T02:23:06;93888.81;;;1.85;84.41
84959;BME280;75256;48.062;11.662;2024-03-29T02:25:32;93882.25;;;1.86;85.41
84959;BME280;75256;48.062;11.662;2024-03-29T02:27:58;93879.38;;;1.93;85.01
84959;BME280;75256;48.062;11.662;2024-03-29T02:30:24;93882.41;;;1.95;85.24
84959;BME280;75256;48.062;11.662;2024-03-29T02:32:50;93869.94;;;2.01;85.20
84959;BME280;75256;48.062;11.662;2024-03-29T02:35:15;93886.50;;;1.99;83.79
84959;BME280;75256;48.062;11.662;2024-03-29T02:37:43;93892.06;;;1.92;84.85
84959;BME280;75256;48.062;11.662;2024-03-29T02:40:11;93884.75;;;1.93;84.66
84959;BME280;75256;48.062;11.662;2024-03-29T02:42:37;93884.44;;;1.91;84.32
84959;BME280;75256;48.062;11.662;2024-03-29T02:45:03;93880.56;;;1.92;84.74
84959;BME280;75256;48.062;11.662;2024-03-29T02:47:29;93870.38;;;1.99;84.25
84959;BME280;75256;48.062;11.662;2024-03-29T02:49:54;93872.63;;;2.01;83.88
84959;BME280;75256;48.062;11.662;2024-03-29T02:52:20;93874.00;;;1.93;83.95
84959;BME280;75256;48.062;11.662;2024-03-29T02:54:45;93868.97;;;1.95;85.14
84959;BME280;75256;48.062;11.662;2024-03-29T02:57:11;93866.59;;;1.97;84.83
84959;BME280;75256;48.062;11.662;2024-03-29T02:59:36;93859.03;;;1.92;84.26
84959;BME280;75256;48.062;11.662;2024-03-29T03:02:01;93868.81;;;1.86;84.65
84959;BME280;75256;48.062;11.662;2024-03-29T03:04:27;93869.41;;;1.77;84.75
84959;BME280;75256;48.062;11.662;2024-03-29T03:06:52;93861.84;;;1.72;84.95
84959;BME280;75256;48.062;11.662;2024-03-29T03:09:20;93864.38;;;1.63;86.32
84959;BME280;75256;48.062;11.662;2024-03-29T03:12:06;93863.72;;;1.59;85.89
84959;BME280;75256;48.062;11.662;2024-03-29T03:14:32;93860.47;;;1.52;86.71
84959;BME280;75256;48.062;11.662;2024-03-29T03:17:00;93846.56;;;1.69;86.16
84959;BME280;75256;48.062;11.662;2024-03-29T03:19:25;93846.47;;;1.73;86.31
84959;BME280;75256;48.062;11.662;2024-03-29T03:21:50;93848.16;;;1.67;84.91
84959;BME280;75256;48.062;11.662;2024-03-29T03:24:16;93842.13;;;1.63;86.30
84959;BME280;75256;48.062;11.662;2024-03-29T03:26:44;93847.44;;;1.50;85.86
84959;BME280;75256;48.062;11.662;2024-03-29T03:29:12;93841.63;;;1.52;87.26
84959;BME280;75256;48.062;11.662;2024-03-29T03:31:38;93842.41;;;1.52;86.06
84959;BME280;75256;48.062;11.662;2024-03-29T03:34:05;93839.53;;;1.43;86.85
84959;BME280;75256;48.062;11.662;2024-03-29T03:36:31;93850.38;;;1.40;86.25
84959;BME280;75256;48.062;11.662;2024-03-29T03:38:56;93841.16;;;1.41;86.85
84959;BME280;75256;48.062;11.662;2024-03-29T03:41:24;93844.53;;;1.28;87.10
84959;BME280;75256;48.062;11.662;2024-03-29T03:43:51;93838.03;;;1.26;86.99
84959;BME280;75256;48.062;11.662;2024-03-29T03:46:19;93827.91;;;1.17;87.40
84959;BME280;75256;48.062;11.662;2024-03-29T03:48:44;93824.94;;;1.28;87.41
84959;BME280;75256;48.062;11.662;2024-03-29T03:51:12;93819.66;;;1.41;86.33
84959;BME280;75256;48.062;11.662;2024-03-29T03:53:37;93818.03;;;1.43;86.56
84959;BME280;75256;48.062;11.662;2024-03-29T03:56:03;93824.94;;;1.44;87.05
84959;BME280;75256;48.062;11.662;2024-03-29T03:58:31;93822.09;;;1.51;86.53
84959;BME280;75256;48.062;11.662;2024-03-29T04:01:03;93817.78;;;1.54;87.60
84959;BME280;75256;48.062;11.662;2024-03-29T04:03:29;93819.28;;;1.55;86.26
84959;BME280;75256;48.062;11.662;2024-03-29T04:05:54;93819.63;;;1.57;86.37
84959;BME280;75256;48.062;11.662;2024-03-29T04:08:20;93815.84;;;1.54;86.86
84959;BME280;75256;48.062;11.662;2024-03-29T04:10:47;93830.88;;;1.52;86.99
84959;BME280;75256;48.062;11.662;2024-03-29T04:13:13;93838.31;;;1.48;87.02
84959;BME280;75256;48.062;11.662;2024-03-29T04:15:39;93846.03;;;1.46;87.16
84959;BME280;75256;48.062;11.662;2024-03-29T04:18:04;93852.69;;;1.41;86.98
84959;BME280;75256;48.062;11.662;2024-03-29T04:20:30;93845.00;;;1.40;87.13
84959;BME280;75256;48.062;11.662;2024-03-29T04:22:55;93826.34;;;1.49;87.32
84959;BME280;75256;48.062;11.662;2024-03-29T04:25:21;93815.44;;;1.56;87.65
84959;BME280;75256;48.062;11.662;2024-03-29T04:27:48;93813.06;;;1.58;87.25
84959;BME280;75256;48.062;11.662;2024-03-29T04:30:14;93809.03;;;1.66;86.15
84959;BME280;75256;48.062;11.662;2024-03-29T04:32:42;93816.56;;;1.71;85.91
84959;BME280;75256;48.062;11.662;2024-03-29T04:35:08;93791.25;;;1.68;86.04
84959;BME280;75256;48.062;11.662;2024-03-29T04:37:33;93781.94;;;1.73;85.47
84959;BME280;75256;48.062;11.662;2024-03-29T04:39:58;93769.81;;;1.81;85.51
84959;BME280;75256;48.062;11.662;2024-03-29T04:42:24;93767.44;;;1.83;85.46
84959;BME280;75256;48.062;11.662;2024-03-29T04:44:52;93763.91;;;1.86;85.64
84959;BME280;75256;48.062;11.662;2024-03-29T04:47:17;93769.38;;;1.82;86.12
84959;BME280;75256;48.062;11.662;2024-03-29T04:49:48;93777.03;;;1.84;85.38
84959;BME280;75256;48.062;11.662;2024-03-29T04:52:13;93775.34;;;1.90;84.97
84959;BME280;75256;48.062;11.662;2024-03-29T04:54:39;93774.56;;;1.89;85.46
84959;BME280;75256;48.062;11.662;2024-03-29T04:57:05;93783.59;;;1.83;84.66
84959;BME280;75256;48.062;11.662;2024-03-29T04:59:33;93794.34;;;1.83;85.60
84959;BME280;75256;48.062;11.662;2024-03-29T05:01:59;93798.53;;;1.84;85.42
84959;BME280;75256;48.062;11.662;2024-03-29T05:04:25;93810.06;;;1.84;84.98
84959;BME280;75256;48.062;11.662;2024-03-29T05:06:57;93812.00;;;1.84;84.49
84959;BME280;75256;48.062;11.662;2024-03-29T05:09:26;93808.66;;;1.80;85.09
84959;BME280;75256;48.062;11.662;2024-03-29T05:11:52;93808.22;;;1.81;85.07
84959;BME280;75256;48.062;11.662;2024-03-29T05:14:19;93815.25;;;1.91;85.31
84959;BME280;75256;48.062;11.662;2024-03-29T05:16:48;93823.69;;;2.06;83.58
84959;BME280;75256;48.062;11.662;2024-03-29T05:19:14;93826.03;;;2.04;84.18
84959;BME280;75256;48.062;11.662;2024-03-29T05:21:41;93827.50;;;2.21;83.55
84959;BME280;75256;48.062;11.662;2024-03-29T05:24:07;93839.88;;;2.18;84.11
84959;BME280;75256;48.062;11.662;2024-03-29T05:26:35;93827.88;;;2.07;84.14
84959;BME280;75256;48.062;11.662;2024-03-29T05:29:00;93834.00;;;2.07;85.04
84959;BME280;75256;48.062;11.662;2024-03-29T05:31:26;93817.34;;;2.12;84.61
84959;BME280;75256;48.062;11.662;2024-03-29T05:33:53;93800.66;;;2.17;85.13
84959;BME280;75256;48.062;11.662;2024-03-29T05:36:18;93799.59;;;2.15;84.27
84959;BME280;75256;48.062;11.662;2024-03-29T05:38:44;93789.16;;;2.17;84.83
84959;BME280;75256;48.062;11.662;2024-03-29T05:41:10;93785.81;;;2.25;84.46
84959;BME280;75256;48.062;11.662;2024-03-29T05:43:41;93767.88;;;2.35;84.70
84959;BME280;75256;48.062;11.662;2024-03-29T05:46:06;93769.59;;;2.41;84.58
84959;BME280;75256;48.062;11.662;2024-03-29T05:48:32;93763.25;;;2.48;84.27
84959;BME280;75256;48.062;11.662;2024-03-29T05:50:57;93752.06;;;2.62;83.13
84959;BME280;75256;48.062;11.662;2024-03-29T05:53:22;93760.13;;;2.75;83.55
84959;BME280;75256;48.062;11.662;2024-03-29T05:55:50;93741.81;;;2.82;83.20
84959;BME280;75256;48.062;11.662;2024-03-29T05:58:16;93740.38;;;2.90;82.74
84959;BME280;75256;48.062;11.662;2024-03-29T06:00:46;93749.41;;;2.96;82.54
84959;BME280;75256;48.062;11.662;2024-03-29T06:03:11;93749.75;;;2.98;82.23
84959;BME280;75256;48.062;11.662;2024-03-29T06:05:37;93756.31;;;2.97;81.67
84959;BME280;75256;48.062;11.662;2024-03-29T06:08:02;93752.44;;;2.98;81.92
84959;BME280;75256;48.062;11.662;2024-03-29T06:10:30;93754.19;;;2.92;83.00
84959;BME280;75256;48.062;11.662;2024-03-29T06:12:56;93754.59;;;2.91;82.50
84959;BME280;75256;48.062;11.662;2024-03-29T06:15:21;93743.16;;;2.99;83.07
84959;BME280;75256;48.062;11.662;2024-03-29T06:18:07;93756.06;;;3.04;82.33
84959;BME280;75256;48.062;11.662;2024-03-29T06:20:35;93771.47;;;3.16;82.55
84959;BME280;75256;48.062;11.662;2024-03-29T06:23:00;93786.88;;;3.28;81.47
84959;BME280;75256;48.062;11.662;2024-03-29T06:25:26;93787.47;;;3.45;81.82
84959;BME280;75256;48.062;11.662;2024-03-29T06:27:53;93792.09;;;3.57;81.16
84959;BME280;75256;48.062;11.662;2024-03-29T06:30:19;93805.28;;;3.76;80.90
84959;BME280;75256;48.062;11.662;2024-03-29T06:32:47;93808.38;;;3.88;80.71
84959;BME280;75256;48.062;11.662;2024-03-29T06:35:12;93800.03;;;3.95;79.63
84959;BME280;75256;48.062;11.662;2024-03-29T06:37:40;93825.06;;;4.17;79.12
84959;BME280;75256;48.062;11.662;2024-03-29T06:40:07;93809.38;;;4.24;78.62
84959;BME280;75256;48.062;11.662;2024-03-29T06:42:33;93809.97;;;4.19;79.48
84959;BME280;75256;48.062;11.662;2024-03-29T06:45:01;93801.47;;;4.30;78.82
84959;BME280;75256;48.062;11.662;2024-03-29T06:47:27;93784.66;;;4.26;78.32
84959;BME280;75256;48.062;11.662;2024-03-29T06:49:53;93795.00;;;4.27;78.28
84959;BME280;75256;48.062;11.662;2024-03-29T06:52:18;93806.63;;;4.37;77.90
84959;BME280;75256;48.062;11.662;2024-03-29T06:54:46;93778.03;;;4.48;77.88
84959;BME280;75256;48.062;11.662;2024-03-29T06:57:11;93784.34;;;4.54;77.26
84959;BME280;75256;48.062;11.662;2024-03-29T06:59:40;93777.72;;;4.77;77.22
84959;BME280;75256;48.062;11.662;2024-03-29T07:02:06;93800.44;;;4.97;77.03
84959;BME280;75256;48.062;11.662;2024-03-29T07:04:31;93794.31;;;4.97;76.27
84959;BME280;75256;48.062;11.662;2024-03-29T07:06:58;93793.28;;;5.03;77.30
84959;BME280;75256;48.062;11.662;2024-03-29T07:09:24;93791.88;;;4.99;76.89
84959;BME280;75256;48.062;11.662;2024-03-29T07:11:51;93799.41;;;5.04;78.45
84959;BME280;75256;48.062;11.662;2024-03-29T07:14:17;93777.53;;;5.20;77.21
84959;BME280;75256;48.062;11.662;2024-03-29T07:16:46;93765.25;;;5.37;75.38
84959;BME280;75256;48.062;11.662;2024-03-29T07:19:12;93771.91;;;5.72;73.58
84959;BME280;75256;48.062;11.662;2024-03-29T07:21:46;93768.16;;;5.79;74.86
84959;BME280;75256;48.062;11.662;2024-03-29T07:24:14;93762.59;;;5.91;73.31
84959;BME280;75256;48.062;11.662;2024-03-29T07:26:40;93758.38;;;6.17;73.77
84959;BME280;75256;48.062;11.662;2024-03-29T07:29:05;93755.50;;;6.12;73.99
84959;BME280;75256;48.062;11.662;2024-03-29T07:31:35;93768.31;;;6.02;75.58
84959;BME280;75256;48.062;11.662;2024-03-29T07:34:00;93780.50;;;5.98;75.85
84959;BME280;75256;48.062;11.662;2024-03-29T07:36:26;93784.69;;;5.90;76.81
84959;BME280;75256;48.062;11.662;2024-03-29T07:38:56;93776.75;;;6.04;76.53
84959;BME280;75256;48.062;11.662;2024-03-29T07:41:22;93776.72;;;6.22;75.89
84959;BME280;75256;48.062;11.662;2024-03-29T07:43:52;93785.56;;;6.32;75.50
84959;BME280;75256;48.062;11.662;2024-03-29T07:46:19;93796.22;;;6.63;73.94
84959;BME280;75256;48.062;11.662;2024-03-29T07:48:47;93804.47;;;7.10;72.70
84959;BME280;75256;48.062;11.662;2024-03-29T07:51:13;93804.78;;;7.12;72.80
84959;BME280;75256;48.062;11.662;2024-03-29T07:53:38;93817.09;;;7.22;71.44
84959;BME280;75256;48.062;11.662;2024-03-29T07:56:04;93821.09;;;7.35;71.92
84959;BME280;75256;48.062;11.662;2024-03-29T07:58:29;93817.63;;;7.68;69.72
84959;BME280;75256;48.062;11.662;2024-03-29T08:00:55;93814.47;;;7.84;70.25
84959;BME280;75256;48.062;11.662;2024-03-29T08:03:21;93814.69;;;7.95;70.17
84959;BME280;75256;48.062;11.662;2024-03-29T08:06:13;93812.50;;;8.08;69.56
84959;BME280;75256;48.062;11.662;2024-03-29T08:08:38;93807.16;;;8.13;70.26
84959;BME280;75256;48.062;11.662;2024-03-29T08:11:06;93806.66;;;8.38;69.05
84959;BME280;75256;48.062;11.662;2024-03-29T08:13:32;93812.03;;;8.47;69.58
84959;BME280;75256;48.062;11.662;2024-03-29T08:16:01;93803.28;;;8.43;68.96
84959;BME280;75256;48.062;11.662;2024-03-29T08:18:28;93797.88;;;8.87;69.05
84959;BME280;75256;48.062;11.662;2024-03-29T08:20:54;93808.41;;;8.79;69.66
84959;BME280;75256;48.062;11.662;2024-03-29T08:23:21;93802.22;;;8.94;67.75
84959;BME280;75256;48.062;11.662;2024-03-29T08:25:49;93798.94;;;9.24;68.96
84959;BME280;75256;48.062;11.662;2024-03-29T08:28:19;93793.53;;;9.10;69.00
84959;BME280;75256;48.062;11.662;2024-03-29T08:30:44;93781.75;;;9.67;65.50
84959;BME280;75256;48.062;11.662;2024-03-29T08:33:10;93781.81;;;10.13;63.80
84959;BME280;75256;48.062;11.662;2024-03-29T08:35:37;93780.19;;;10.01;66.01
84959;BME280;75256;48.062;11.662;2024-03-29T08:38:08;93789.66;;;9.85;68.25
84959;BME280;75256;48.062;11.662;2024-03-29T08:40:38;93785.22;;;10.08;68.69
84959;BME280;75256;48.062;11.662;2024-03-29T08:43:07;93784.09;;;10.15;67.92
84959;BME280;75256;48.062;11.662;2024-03-29T08:45:32;93779.63;;;10.88;64.56
84959;BME280;75256;48.062;11.662;2024-03-29T08:48:00;93781.25;;;11.06;64.55
84959;BME280;75256;48.062;11.662;2024-03-29T08:50:26;93785.88;;;10.94;65.75
84959;BME280;75256;48.062;11.662;2024-03-29T08:52:51;93791.88;;;11.04;65.61
84959;BME280;75256;48.062;11.662;2024-03-29T08:55:18;93785.88;;;11.25;63.47
84959;BME280;75256;48.062;11.662;2024-03-29T08:57:43;93786.94;;;11.39;64.06
84959;BME280;75256;48.062;11.662;2024-03-29T09:00:12;93783.84;;;11.63;64.91
84959;BME280;75256;48.062;11.662;2024-03-29T09:02:38;93778.84;;;11.92;64.65
84959;BME280;75256;48.062;11.662;2024-03-29T09:05:03;93773.50;;;12.36;60.93
84959;BME280;75256;48.062;11.662;2024-03-29T09:07:31;93779.75;;;12.37;62.18
84959;BME280;75256;48.062;11.662;2024-03-29T09:09:59;93774.25;;;12.26;63.05
84959;BME280;75256;48.062;11.662;2024-03-29T09:12:24;93778.59;;;12.71;61.73
84959;BME280;75256;48.062;11.662;2024-03-29T09:14:50;93780.59;;;12.82;60.32
84959;BME280;75256;48.062;11.662;2024-03-29T09:17:16;93768.19;;;13.14;57.20
84959;BME280;75256;48.062;11.662;2024-03-29T09:19:41;93772.16;;;13.57;54.33
84959;BME280;75256;48.062;11.662;2024-03-29T09:22:07;93776.69;;;14.23;51.00
84959;BME280;75256;48.062;11.662;2024-03-29T09:24:33;93776.25;;;14.08;49.46
84959;BME280;75256;48.062;11.662;2024-03-29T09:26:59;93779.44;;;14.28;50.45
84959;BME280;75256;48.062;11.662;2024-03-29T09:29:25;93783.63;;;14.40;51.59
84959;BME280;75256;48.062;11.662;2024-03-29T09:31:50;93774.31;;;14.54;49.49
84959;BME280;75256;48.062;11.662;2024-03-29T09:34:18;93776.78;;;14.98;50.48
84959;BME280;75256;48.062;11.662;2024-03-29T09:36:44;93778.78;;;15.04;49.54
84959;BME280;75256;48.062;11.662;2024-03-29T09:39:09;93764.03;;;15.31;48.47
84959;BME280;75256;48.062;11.662;2024-03-29T09:41:35;93768.44;;;15.15;49.42
84959;BME280;75256;48.062;11.662;2024-03-29T09:44:03;93758.03;;;15.32;47.74
84959;BME280;75256;48.062;11.662;2024-03-29T09:46:33;93764.06;;;15.84;47.01
84959;BME280;75256;48.062;11.662;2024-03-29T09:48:58;93766.47;;;16.17;45.16
84959;BME280;75256;48.062;11.662;2024-03-29T09:51:26;93758.91;;;15.99;45.65
84959;BME280;75256;48.062;11.662;2024-03-29T09:53:51;93754.91;;;16.00;47.95
84959;BME280;75256;48.062;11.662;2024-03-29T09:56:16;93760.88;;;16.23;45.05
84959;BME280;75256;48.062;11.662;2024-03-29T09:58:42;93767.84;;;16.05;44.83
84959;BME280;75256;48.062;11.662;2024-03-29T10:01:07;93776.88;;;16.06;44.84
84959;BME280;75256;48.062;11.662;2024-03-29T10:03:55;93769.03;;;16.10;44.57
84959;BME280;75256;48.062;11.662;2024-03-29T10:06:23;93765.94;;;16.19;42.91
84959;BME280;75256;48.062;11.662;2024-03-29T10:08:49;93769.94;;;16.18;44.20
84959;BME280;75256;48.062;11.662;2024-03-29T10:11:16;93767.38;;;16.01;43.18
84959;BME280;75256;48.062;11.662;2024-03-29T10:13:45;93767.47;;;16.14;43.95
84959;BME280;75256;48.062;11.662;2024-03-29T10:16:13;93764.72;;;16.14;41.64
84959;BME280;75256;48.062;11.662;2024-03-29T10:18:43;93762.16;;;16.22;41.76
84959;BME280;75256;48.062;11.662;2024-03-29T10:21:09;93764.28;;;16.35;43.37
84959;BME280;75256;48.062;11.662;2024-03-29T10:23:35;93754.53;;;16.52;42.50
84959;BME280;75256;48.062;11.662;2024-03-29T10:26:04;93764.44;;;16.61;41.18
84959;BME280;75256;48.062;11.662;2024-03-29T10:28:34;93755.44;;;16.60;42.28
84959;BME280;75256;48.062;11.662;2024-03-29T10:31:03;93751.78;;;16.71;41.71
84959;BME280;75256;48.062;11.662;2024-03-29T10:33:30;93748.28;;;16.89;42.73
84959;BME280;75256;48.062;11.662;2024-03-29T10:35:57;93744.63;;;16.81;42.34
84959;BME280;75256;48.062;11.662;2024-03-29T10:38:27;93754.81;;;17.04;42.54
84959;BME280;75256;48.062;11.662;2024-03-29T10:40:56;93754.13;;;17.17;43.15
84959;BME280;75256;48.062;11.662;2024-03-29T10:43:25;93747.78;;;17.22;41.00
84959;BME280;75256;48.062;11.662;2024-03-29T10:45:50;93743.69;;;17.42;40.97
84959;BME280;75256;48.062;11.662;2024-03-29T10:48:25;93747.66;;;17.59;40.12
84959;BME280;75256;48.062;11.662;2024-03-29T10:50:54;93740.91;;;17.73;40.42
84959;BME280;75256;48.062;11.662;2024-03-29T10:53:23;93730.84;;;17.89;40.42
84959;BME280;75256;48.062;11.662;2024-03-29T10:55:59;93729.75;;;17.66;38.50
84959;BME280;75256;48.062;11.662;2024-03-29T10:58:30;93737.94;;;17.84;37.85
84959;BME280;75256;48.062;11.662;2024-03-29T11:01:01;93735.81;;;18.03;37.88
84959;BME280;75256;48.062;11.662;2024-03-29T11:06:01;93740.94;;;17.99;39.37
84959;BME280;75256;48.062;11.662;2024-03-29T11:08:33;93734.88;;;18.14;38.59
84959;BME280;75256;48.062;11.662;2024-03-29T11:11:10;93734.75;;;18.06;36.82
84959;BME280;75256;48.062;11.662;2024-03-29T11:14:02;93727.31;;;18.27;38.90
84959;BME280;75256;48.062;11.662;2024-03-29T11:16:32;93722.41;;;18.33;37.01
84959;BME280;75256;48.062;11.662;2024-03-29T11:18:58;93720.00;;;18.43;35.40
84959;BME280;75256;48.062;11.662;2024-03-29T11:21:24;93726.22;;;18.56;36.29
84959;BME280;75256;48.062;11.662;2024-03-29T11:23:53;93717.91;;;18.70;36.18
84959;BME280;75256;48.062;11.662;2024-03-29T11:26:20;93724.31;;;18.65;36.06
84959;BME280;75256;48.062;11.662;2024-03-29T11:28:52;93721.63;;;18.72;38.06
84959;BME280;75256;48.062;11.662;2024-03-29T11:31:22;93713.97;;;18.78;37.05
84959;BME280;75256;48.062;11.662;2024-03-29T11:33:50;93711.38;;;18.80;36.37
84959;BME280;75256;48.062;11.662;2024-03-29T11:36:20;93705.81;;;19.14;35.32
84959;BME280;75256;48.062;11.662;2024-03-29T11:38:48;93702.59;;;19.23;35.01
84959;BME280;75256;48.062;11.662;2024-03-29T11:41:18;93718.81;;;19.60;34.58
84959;BME280;75256;48.062;11.662;2024-03-29T11:43:44;93715.09;;;19.57;35.44
84959;BME280;75256;48.062;11.662;2024-03-29T11:46:11;93713.31;;;19.67;36.31
84959;BME280;75256;48.062;11.662;2024-03-29T11:48:40;93726.59;;;19.69;35.09
84959;BME280;75256;48.062;11.662;2024-03-29T11:51:07;93723.84;;;19.69;35.06
84959;BME280;75256;48.062;11.662;2024-03-29T11:53:36;93706.84;;;19.93;35.17
84959;BME280;75256;48.062;11.662;2024-03-29T11:56:03;93715.03;;;20.27;33.91
84959;BME280;75256;48.062;11.662;2024-03-29T11:58:32;93701.53;;;20.66;34.66
84959;BME280;75256;48.062;11.662;2024-03-29T12:00:59;93711.03;;;20.93;33.89
84959;BME280;75256;48.062;11.662;2024-03-29T12:03:26;93698.91;;;21.34;33.29
84959;BME280;75256;48.062;11.662;2024-03-29T12:05:56;93694.13;;;21.35;33.58
84959;BME280;75256;48.062;11.662;2024-03-29T12:08:34;93699.66;;;21.35;33.01
84959;BME280;75256;48.062;11.662;2024-03-29T12:11:01;93687.84;;;21.79;34.60
84959;BME280;75256;48.062;11.662;2024-03-29T12:13:27;93677.47;;;21.87;31.03
84959;BME280;75256;48.062;11.662;2024-03-29T12:15:53;93681.00;;;21.80;32.34
84959;BME280;75256;48.062;11.662;2024-03-29T12:18:20;93685.25;;;21.74;31.97
84959;BME280;75256;48.062;11.662;2024-03-29T12:20:49;93674.66;;;21.95;30.35
84959;BME280;75256;48.062;11.662;2024-03-29T12:23:18;93686.16;;;21.99;31.76
84959;BME280;75256;48.062;11.662;2024-03-29T12:25:44;93680.59;;;21.99;30.59
84959;BME280;75256;48.062;11.662;2024-03-29T12:28:11;93674.84;;;21.89;32.36
84959;BME280;75256;48.062;11.662;2024-03-29T12:30:41;93661.72;;;21.75;30.55
84959;BME280;75256;48.062;11.662;2024-03-29T12:33:08;93668.59;;;21.89;31.38
84959;BME280;75256;48.062;11.662;2024-03-29T12:35:35;93666.34;;;21.95;31.28
84959;BME280;75256;48.062;11.662;2024-03-29T12:38:02;93674.69;;;21.80;31.58
84959;BME280;75256;48.062;11.662;2024-03-29T12:40:29;93656.53;;;21.86;32.68
84959;BME280;75256;48.062;11.662;2024-03-29T12:42:58;93654.13;;;21.68;30.31
84959;BME280;75256;48.062;11.662;2024-03-29T12:45:24;93657.09;;;21.77;32.57
84959;BME280;75256;48.062;11.662;2024-03-29T12:47:53;93656.56;;;21.64;31.99
84959;BME280;75256;48.062;11.662;2024-03-29T12:50:33;93647.47;;;21.78;31.81
84959;BME280;75256;48.062;11.662;2024-03-29T12:53:05;93646.69;;;22.00;29.52
84959;BME280;75256;48.062;11.662;2024-03-29T12:55:31;93634.47;;;21.96;31.33
84959;BME280;75256;48.062;11.662;2024-03-29T12:58:00;93638.94;;;21.99;30.84
84959;BME280;75256;48.062;11.662;2024-03-29T13:00:26;93637.94;;;22.11;30.44